Time;durP1;ratioP1;P1;durP2;ratioP2;P2;SDS_P1;SDS_P2;PMS_P1;PMS_P2;Temp;Humidity;BMP_temperature;BMP_pressure;BME280_temperature;BME280_humidity;BME280_pressure;Samples;Min_cycle;Max_cycle;Signal;HPM_P1;HPM_P2
2022/12/25 06:39:20;;;;;;;0.60;0.60;;;;;;;;;;7391163;19;20594;-66
2022/12/25 06:41:46;;;;;;;0.80;0.80;;;;;;;;;;7385241;19;20142;-65
2022/12/25 06:44:12;;;;;;;0.70;0.60;;;;;;;;;;7389586;19;20165;-65
2022/12/25 06:46:37;;;;;;;1.27;1.17;;;;;;;;;;7390254;19;20586;-65
2022/12/25 06:49:02;;;;;;;1.00;1.00;;;;;;;;;;7387089;19;20137;-65
2022/12/25 06:51:29;;;;;;;1.00;1.00;;;;;;;;;;7384273;19;20586;-65
2022/12/25 06:53:55;;;;;;;4.10;0.90;;;;;;;;;;7384432;19;20180;-66
2022/12/25 06:56:22;;;;;;;0.50;0.50;;;;;;;;;;7390696;19;20137;-65
2022/12/25 06:59:00;;;;;;;0.67;0.67;;;;;;;;;;7389903;19;20627;-65
2022/12/25 07:01:32;;;;;;;0.63;0.63;;;;;;;;;;7390039;19;20120;-65
2022/12/25 07:04:13;;;;;;;1.17;0.97;;;;;;;;;;7388066;19;20160;-65
2022/12/25 07:06:38;;;;;;;0.83;0.83;;;;;;;;;;7388446;19;20637;-65
2022/12/25 07:09:03;;;;;;;0.60;0.60;;;;;;;;;;7388348;19;20136;-65
2022/12/25 07:11:29;;;;;;;0.63;0.63;;;;;;;;;;7385673;19;20526;-65
2022/12/25 07:13:54;;;;;;;1.07;0.83;;;;;;;;;;7386514;19;20140;-65
2022/12/25 07:16:19;;;;;;;2.77;1.43;;;;;;;;;;7388506;19;20129;-65
2022/12/25 07:18:45;;;;;;;0.43;0.43;;;;;;;;;;7390047;19;20151;-66
2022/12/25 07:21:12;;;;;;;0.73;0.73;;;;;;;;;;7391239;19;20117;-65
2022/12/25 07:23:38;;;;;;;1.10;1.00;;;;;;;;;;7384913;19;20148;-65
2022/12/25 07:26:04;;;;;;;0.83;0.83;;;;;;;;;;7389163;19;20117;-65
2022/12/25 07:28:30;;;;;;;0.50;0.50;;;;;;;;;;7388285;19;20903;-65
2022/12/25 07:31:04;;;;;;;1.27;1.23;;;;;;;;;;7391614;19;20121;-65
2022/12/25 07:33:29;;;;;;;0.60;0.60;;;;;;;;;;7386635;19;20152;-65
2022/12/25 07:35:55;;;;;;;1.40;1.30;;;;;;;;;;7386997;19;20155;-65
2022/12/25 07:38:20;;;;;;;0.50;0.50;;;;;;;;;;7390350;19;20121;-65
2022/12/25 07:40:45;;;;;;;1.00;0.90;;;;;;;;;;7387302;19;20155;-65
2022/12/25 07:43:11;;;;;;;0.77;0.77;;;;;;;;;;7388217;19;20491;-65
2022/12/25 07:45:36;;;;;;;0.70;0.70;;;;;;;;;;7388331;19;20121;-65
2022/12/25 07:48:02;;;;;;;0.90;0.90;;;;;;;;;;7388779;19;20129;-65
2022/12/25 07:50:27;;;;;;;0.53;0.53;;;;;;;;;;7390058;19;20117;-65
2022/12/25 07:52:52;;;;;;;1.03;0.50;;;;;;;;;;7387349;19;20592;-66
2022/12/25 07:55:17;;;;;;;0.63;0.60;;;;;;;;;;7388949;19;20125;-65
2022/12/25 07:57:43;;;;;;;0.63;0.63;;;;;;;;;;7386784;19;20125;-65
2022/12/25 08:00:09;;;;;;;1.00;1.00;;;;;;;;;;7376078;19;20152;-65
2022/12/25 08:02:34;;;;;;;0.40;0.40;;;;;;;;;;7389443;19;20178;-65
2022/12/25 08:04:59;;;;;;;1.10;1.10;;;;;;;;;;7387381;19;20510;-65
2022/12/25 08:07:26;;;;;;;0.70;0.70;;;;;;;;;;7389816;19;20137;-65
2022/12/25 08:09:51;;;;;;;0.83;0.83;;;;;;;;;;7389126;19;20113;-65
2022/12/25 08:12:16;;;;;;;0.57;0.57;;;;;;;;;;7389410;19;20117;-65
2022/12/25 08:14:42;;;;;;;0.60;0.60;;;;;;;;;;7387963;19;20132;-65
2022/12/25 08:17:07;;;;;;;0.67;0.67;;;;;;;;;;7386142;19;20128;-65
2022/12/25 08:19:32;;;;;;;0.70;0.70;;;;;;;;;;7374929;19;20132;-65
2022/12/25 08:21:58;;;;;;;0.60;0.60;;;;;;;;;;7387034;19;20166;-65
2022/12/25 08:24:23;;;;;;;0.73;0.73;;;;;;;;;;7386570;19;20145;-65
2022/12/25 08:26:48;;;;;;;0.50;0.50;;;;;;;;;;7375833;19;20643;-65
2022/12/25 08:29:14;;;;;;;0.73;0.73;;;;;;;;;;7386531;19;20128;-65
2022/12/25 08:31:41;;;;;;;0.50;0.50;;;;;;;;;;7381641;19;20125;-65
2022/12/25 08:34:06;;;;;;;0.50;0.50;;;;;;;;;;7377536;19;20172;-65
2022/12/25 08:36:31;;;;;;;0.50;0.50;;;;;;;;;;7390720;19;20133;-65
2022/12/25 08:38:57;;;;;;;0.83;0.83;;;;;;;;;;7385580;19;20133;-65
2022/12/25 08:41:22;;;;;;;0.40;0.40;;;;;;;;;;7392163;19;20184;-65
2022/12/25 08:43:47;;;;;;;0.77;0.77;;;;;;;;;;7389902;19;20145;-65
2022/12/25 08:46:13;;;;;;;1.87;0.90;;;;;;;;;;7392296;19;20121;-65
2022/12/25 08:48:43;;;;;;;0.53;0.53;;;;;;;;;;7392112;19;20138;-65
2022/12/25 08:51:14;;;;;;;0.90;0.90;;;;;;;;;;7388946;19;20140;-65
2022/12/25 08:53:44;;;;;;;0.93;0.70;;;;;;;;;;7389862;19;20172;-65
2022/12/25 08:56:10;;;;;;;0.30;0.30;;;;;;;;;;7384793;19;20128;-65
2022/12/25 08:58:35;;;;;;;0.73;0.73;;;;;;;;;;7389641;19;20558;-65
2022/12/25 09:01:01;;;;;;;0.40;0.40;;;;;;;;;;7390196;19;20129;-66
2022/12/25 09:03:26;;;;;;;0.30;0.30;;;;;;;;;;7387463;19;20220;-65
2022/12/25 09:05:52;;;;;;;0.60;0.60;;;;;;;;;;7386853;19;20639;-65
2022/12/25 09:08:19;;;;;;;0.67;0.67;;;;;;;;;;7389486;19;20124;-65
2022/12/25 09:10:44;;;;;;;1.00;1.00;;;;;;;;;;7384288;19;20460;-65
2022/12/25 09:13:09;;;;;;;0.50;0.50;;;;;;;;;;7387853;19;20149;-65
2022/12/25 09:15:37;;;;;;;0.60;0.60;;;;;;;;;;7390784;19;20132;-65
2022/12/25 09:18:02;;;;;;;0.23;0.23;;;;;;;;;;7388091;19;20127;-65
2022/12/25 09:20:28;;;;;;;0.67;0.67;;;;;;;;;;7388306;19;20468;-65
2022/12/25 09:22:53;;;;;;;0.40;0.40;;;;;;;;;;7391621;19;20653;-65
2022/12/25 09:25:19;;;;;;;0.63;0.63;;;;;;;;;;7383428;19;20121;-65
2022/12/25 09:27:44;;;;;;;0.40;0.40;;;;;;;;;;7388720;19;20129;-65
2022/12/25 09:30:09;;;;;;;1.17;0.50;;;;;;;;;;7392233;19;20555;-65
2022/12/25 09:32:35;;;;;;;0.57;0.57;;;;;;;;;;7387111;19;20152;-65
2022/12/25 09:35:00;;;;;;;0.57;0.57;;;;;;;;;;7388843;19;20133;-65
2022/12/25 09:37:25;;;;;;;0.90;0.87;;;;;;;;;;7386464;19;20136;-65
2022/12/25 09:39:51;;;;;;;0.40;0.40;;;;;;;;;;7386156;19;20129;-65
2022/12/25 09:42:21;;;;;;;0.70;0.70;;;;;;;;;;7392830;19;20123;-65
2022/12/25 09:44:51;;;;;;;0.90;0.90;;;;;;;;;;7391461;19;20497;-65
2022/12/25 09:47:22;;;;;;;0.47;0.47;;;;;;;;;;7394321;19;20184;-65
2022/12/25 09:49:50;;;;;;;1.70;1.13;;;;;;;;;;7382256;19;20160;-66
2022/12/25 09:52:19;;;;;;;0.50;0.50;;;;;;;;;;7392297;19;20121;-65
2022/12/25 09:55:12;;;;;;;0.43;0.43;;;;;;;;;;7382992;19;20157;-65
2022/12/25 09:57:38;;;;;;;0.50;0.50;;;;;;;;;;7380409;19;20193;-65
2022/12/25 10:00:21;;;;;;;0.70;0.70;;;;;;;;;;7387345;19;20149;-65
2022/12/25 10:02:54;;;;;;;0.30;0.30;;;;;;;;;;7387215;19;20157;-65
2022/12/25 10:05:48;;;;;;;0.40;0.40;;;;;;;;;;7374902;19;20674;-65
2022/12/25 10:08:35;;;;;;;0.30;0.30;;;;;;;;;;7385936;19;20117;-65
2022/12/25 10:11:17;;;;;;;0.53;0.53;;;;;;;;;;7383191;19;20234;-65
2022/12/25 10:13:57;;;;;;;0.60;0.60;;;;;;;;;;7375135;19;20884;-65
2022/12/25 10:16:47;;;;;;;0.50;0.50;;;;;;;;;;7386747;19;20128;-65
2022/12/25 10:19:27;;;;;;;0.30;0.30;;;;;;;;;;7388234;19;20149;-65
2022/12/25 10:21:57;;;;;;;0.30;0.30;;;;;;;;;;7374573;19;20641;-65
2022/12/25 10:24:33;;;;;;;0.37;0.37;;;;;;;;;;7386538;19;20141;-65
2022/12/25 10:27:01;;;;;;;0.87;0.87;;;;;;;;;;7386533;19;20143;-65
2022/12/25 10:29:29;;;;;;;0.30;0.30;;;;;;;;;;7391591;19;20154;-65
2022/12/25 10:31:55;;;;;;;0.30;0.30;;;;;;;;;;7373800;19;20129;-65
2022/12/25 10:34:21;;;;;;;0.30;0.30;;;;;;;;;;7378707;19;20163;-65
2022/12/25 10:36:46;;;;;;;0.30;0.30;;;;;;;;;;7376663;19;20599;-64
2022/12/25 10:39:23;;;;;;;0.30;0.30;;;;;;;;;;7364246;19;20135;-64
2022/12/25 10:41:48;;;;;;;0.40;0.40;;;;;;;;;;7368199;19;20116;-64
2022/12/25 10:44:19;;;;;;;0.30;0.30;;;;;;;;;;7366982;19;20160;-64
2022/12/25 10:46:48;;;;;;;0.30;0.30;;;;;;;;;;7368269;19;20484;-64
2022/12/25 10:49:15;;;;;;;0.27;0.27;;;;;;;;;;7378864;19;20127;-64
2022/12/25 10:51:40;;;;;;;0.40;0.40;;;;;;;;;;7387843;19;20602;-64
2022/12/25 10:54:22;;;;;;;0.30;0.30;;;;;;;;;;7386931;19;20186;-65
2022/12/25 10:56:59;;;;;;;0.20;0.20;;;;;;;;;;7388531;19;20131;-64
2022/12/25 10:59:27;;;;;;;0.30;0.30;;;;;;;;;;7382438;19;20188;-64
2022/12/25 11:01:53;;;;;;;0.37;0.37;;;;;;;;;;7388445;19;20154;-64
2022/12/25 11:04:25;;;;;;;0.30;0.30;;;;;;;;;;7384535;19;20160;-64
2022/12/25 11:07:00;;;;;;;0.40;0.40;;;;;;;;;;7387614;19;20181;-64
2022/12/25 11:09:26;;;;;;;0.20;0.20;;;;;;;;;;7387591;19;20141;-64
2022/12/25 11:11:51;;;;;;;0.20;0.20;;;;;;;;;;7390211;19;20503;-64
2022/12/25 11:14:19;;;;;;;0.20;0.20;;;;;;;;;;7386497;19;20781;-64
2022/12/25 11:16:45;;;;;;;0.20;0.20;;;;;;;;;;7389540;19;20143;-64
2022/12/25 11:19:29;;;;;;;0.30;0.30;;;;;;;;;;7387941;19;20180;-64
2022/12/25 11:22:00;;;;;;;0.30;0.30;;;;;;;;;;7383196;19;20599;-64
2022/12/25 11:24:34;;;;;;;0.57;0.50;;;;;;;;;;7385237;19;20529;-64
2022/12/25 11:27:02;;;;;;;0.30;0.30;;;;;;;;;;7387112;19;20209;-64
2022/12/25 11:29:40;;;;;;;1.00;1.00;;;;;;;;;;7376926;19;20152;-63
2022/12/25 11:32:12;;;;;;;0.40;0.40;;;;;;;;;;7364870;19;20155;-64
2022/12/25 11:34:46;;;;;;;0.93;0.63;;;;;;;;;;7352622;19;20156;-65
2022/12/25 11:37:33;;;;;;;0.70;0.70;;;;;;;;;;7363118;19;20601;-64
2022/12/25 11:39:58;;;;;;;1.13;0.73;;;;;;;;;;7359130;19;20141;-63
2022/12/25 11:42:39;;;;;;;0.40;0.40;;;;;;;;;;7369747;19;20167;-64
2022/12/25 11:45:11;;;;;;;2.13;1.23;;;;;;;;;;7356895;19;20236;-65
2022/12/25 11:47:59;;;;;;;0.30;0.30;;;;;;;;;;7362479;19;20816;-64
2022/12/25 11:50:35;;;;;;;0.93;0.93;;;;;;;;;;7382693;19;20528;-64
2022/12/25 11:53:03;;;;;;;0.30;0.30;;;;;;;;;;7375869;19;20163;-64
2022/12/25 11:55:36;;;;;;;0.80;0.50;;;;;;;;;;7357375;19;20153;-65
2022/12/25 11:58:09;;;;;;;0.40;0.40;;;;;;;;;;7363791;19;20137;-65
2022/12/25 12:00:35;;;;;;;0.73;0.73;;;;;;;;;;7357727;19;20144;-65
2022/12/25 12:03:08;;;;;;;0.50;0.50;;;;;;;;;;7372012;19;20611;-65
2022/12/25 12:05:43;;;;;;;0.57;0.57;;;;;;;;;;7375723;19;20113;-64
2022/12/25 12:08:09;;;;;;;1.70;0.50;;;;;;;;;;7383552;19;20137;-65
2022/12/25 12:10:57;;;;;;;0.60;0.60;;;;;;;;;;7388407;19;20133;-66
2022/12/25 12:13:33;;;;;;;0.93;0.87;;;;;;;;;;7389082;19;20153;-64
2022/12/25 12:15:58;;;;;;;0.43;0.43;;;;;;;;;;7368056;19;20156;-65
2022/12/25 12:18:26;;;;;;;0.60;0.60;;;;;;;;;;7377601;19;20150;-65
2022/12/25 12:21:08;;;;;;;0.73;0.73;;;;;;;;;;7380411;19;20132;-64
2022/12/25 12:23:47;;;;;;;1.02;1.02;;;;;;;;;;7380653;19;20603;-64
2022/12/25 12:26:17;;;;;;;0.77;0.77;;;;;;;;;;7379726;19;20139;-64
2022/12/25 12:28:45;;;;;;;0.70;0.70;;;;;;;;;;7393276;19;20137;-65
2022/12/25 12:31:10;;;;;;;0.30;0.30;;;;;;;;;;7393555;19;20152;-64
2022/12/25 12:33:43;;;;;;;1.13;1.02;;;;;;;;;;7392358;19;20146;-64
2022/12/25 12:36:12;;;;;;;0.47;0.47;;;;;;;;;;7392166;19;20627;-65
2022/12/25 12:38:39;;;;;;;0.73;0.73;;;;;;;;;;7392193;19;20144;-65
2022/12/25 12:41:07;;;;;;;0.55;0.55;;;;;;;;;;7381878;19;20140;-65
2022/12/25 12:43:40;;;;;;;0.38;0.38;;;;;;;;;;7384722;19;20160;-65
2022/12/25 12:46:31;;;;;;;0.90;0.90;;;;;;;;;;7392360;19;20594;-65
2022/12/25 12:49:19;;;;;;;0.50;0.50;;;;;;;;;;7390171;19;20587;-65
2022/12/25 12:51:44;;;;;;;0.32;0.32;;;;;;;;;;7373028;19;20460;-64
2022/12/25 12:54:20;;;;;;;0.82;0.82;;;;;;;;;;7376439;19;20190;-65
2022/12/25 12:57:03;;;;;;;1.02;0.50;;;;;;;;;;7377331;19;20453;-65
2022/12/25 12:59:38;;;;;;;0.57;0.57;;;;;;;;;;7381603;19;20158;-65
2022/12/25 13:02:31;;;;;;;0.52;0.52;;;;;;;;;;7381934;19;20121;-65
2022/12/25 13:05:06;;;;;;;0.37;0.37;;;;;;;;;;7373608;19;20172;-65
2022/12/25 13:07:47;;;;;;;0.75;0.75;;;;;;;;;;7387292;19;20144;-66
2022/12/25 13:10:30;;;;;;;2.20;0.70;;;;;;;;;;7393706;19;20152;-65
2022/12/25 13:13:01;;;;;;;0.50;0.50;;;;;;;;;;7386602;19;20149;-65
2022/12/25 13:15:29;;;;;;;0.45;0.45;;;;;;;;;;7389660;19;20125;-65
2022/12/25 13:18:02;;;;;;;1.08;0.73;;;;;;;;;;7388218;19;20133;-65
2022/12/25 13:20:49;;;;;;;0.75;0.52;;;;;;;;;;7378753;19;20141;-65
2022/12/25 13:23:32;;;;;;;0.60;0.60;;;;;;;;;;7386522;19;20528;-66
2022/12/25 13:26:04;;;;;;;1.65;0.65;;;;;;;;;;7390717;19;20141;-65
2022/12/25 13:28:34;;;;;;;0.97;0.97;;;;;;;;;;7367483;19;20141;-66
2022/12/25 13:31:12;;;;;;;0.60;0.60;;;;;;;;;;7369992;19;20378;-65
2022/12/25 13:33:45;;;;;;;0.53;0.53;;;;;;;;;;7379961;19;20141;-65
2022/12/25 13:36:11;;;;;;;1.33;0.50;;;;;;;;;;7382486;19;20136;-64
2022/12/25 13:38:42;;;;;;;0.35;0.35;;;;;;;;;;7375499;19;20128;-65
2022/12/25 13:43:51;;;;;;;0.63;0.63;;;;;;;;;;7363339;19;20169;-64
2022/12/25 13:46:24;;;;;;;0.60;0.60;;;;;;;;;;7371461;19;20492;-65
2022/12/25 13:48:58;;;;;;;0.33;0.33;;;;;;;;;;7388617;19;20133;-64
2022/12/25 13:51:23;;;;;;;0.40;0.40;;;;;;;;;;7387452;19;20192;-64
2022/12/25 13:53:48;;;;;;;0.73;0.73;;;;;;;;;;7389403;19;20568;-64
2022/12/25 13:56:15;;;;;;;0.33;0.33;;;;;;;;;;7390239;19;20129;-64
2022/12/25 13:58:40;;;;;;;0.30;0.30;;;;;;;;;;7387900;19;20151;-64
2022/12/25 14:01:06;;;;;;;0.52;0.52;;;;;;;;;;7389708;19;20999;-65
2022/12/25 14:03:39;;;;;;;0.45;0.45;;;;;;;;;;7390128;19;20220;-64
2022/12/25 14:06:13;;;;;;;0.90;0.90;;;;;;;;;;7389142;19;20132;-64
2022/12/25 14:08:38;;;;;;;0.30;0.30;;;;;;;;;;7390806;19;20290;-64
2022/12/25 14:11:05;;;;;;;0.50;0.50;;;;;;;;;;7386591;19;20692;-64
2022/12/25 14:13:32;;;;;;;0.50;0.50;;;;;;;;;;7389257;19;20166;-64
2022/12/25 14:15:58;;;;;;;2.73;0.63;;;;;;;;;;7389175;19;20145;-64
2022/12/25 14:18:24;;;;;;;0.68;0.68;;;;;;;;;;7386220;19;20499;-64
2022/12/25 14:20:57;;;;;;;0.53;0.53;;;;;;;;;;7388868;19;20132;-64
2022/12/25 14:23:22;;;;;;;0.33;0.33;;;;;;;;;;7385361;19;20191;-64
2022/12/25 14:25:48;;;;;;;0.77;0.77;;;;;;;;;;7381736;19;20129;-64
2022/12/25 14:28:30;;;;;;;0.33;0.33;;;;;;;;;;7389053;19;20133;-64
2022/12/25 14:30:56;;;;;;;0.70;0.70;;;;;;;;;;7385054;19;20595;-64
2022/12/25 14:33:23;;;;;;;0.30;0.30;;;;;;;;;;7382180;19;20148;-64
2022/12/25 14:35:49;;;;;;;0.30;0.30;;;;;;;;;;7379923;19;20946;-65
2022/12/25 14:38:25;;;;;;;1.08;0.73;;;;;;;;;;7367323;19;20548;-64
2022/12/25 14:41:32;;;;;;;0.95;0.52;;;;;;;;;;7374868;19;20241;-64
2022/12/25 14:43:58;;;;;;;0.32;0.32;;;;;;;;;;7347638;19;20176;-64
2022/12/25 14:46:26;;;;;;;0.30;0.30;;;;;;;;;;7357581;19;20635;-64
2022/12/25 14:49:23;;;;;;;0.40;0.40;;;;;;;;;;7360667;19;20125;-64
2022/12/25 14:51:49;;;;;;;0.80;0.80;;;;;;;;;;7365483;19;20610;-64
2022/12/25 14:54:18;;;;;;;0.30;0.30;;;;;;;;;;7351996;19;20152;-64
2022/12/25 14:56:47;;;;;;;0.30;0.30;;;;;;;;;;7361443;19;20160;-65
2022/12/25 14:59:16;;;;;;;0.37;0.37;;;;;;;;;;7369259;19;20577;-65
2022/12/25 15:01:43;;;;;;;0.50;0.50;;;;;;;;;;7382687;19;20136;-64
2022/12/25 15:04:08;;;;;;;0.63;0.63;;;;;;;;;;7367996;19;20151;-65
2022/12/25 15:06:34;;;;;;;0.57;0.57;;;;;;;;;;7376727;19;20332;-64
2022/12/25 15:09:08;;;;;;;0.37;0.37;;;;;;;;;;7348683;19;20202;-65
2022/12/25 15:11:33;;;;;;;0.40;0.40;;;;;;;;;;7367968;19;20618;-64
2022/12/25 15:13:58;;;;;;;0.30;0.30;;;;;;;;;;7357811;19;20145;-64
2022/12/25 15:16:28;;;;;;;0.40;0.40;;;;;;;;;;7355480;19;20502;-64
2022/12/25 15:18:54;;;;;;;0.33;0.33;;;;;;;;;;7367778;19;20137;-64
2022/12/25 15:21:23;;;;;;;0.60;0.60;;;;;;;;;;7359824;19;20121;-64
2022/12/25 15:23:49;;;;;;;0.57;0.57;;;;;;;;;;7368310;19;20642;-64
2022/12/25 15:26:15;;;;;;;0.40;0.40;;;;;;;;;;7366839;19;20152;-64
2022/12/25 15:28:40;;;;;;;1.07;0.97;;;;;;;;;;7354353;19;20120;-64
2022/12/25 15:31:24;;;;;;;0.40;0.40;;;;;;;;;;7351688;19;20897;-64
2022/12/25 15:33:51;;;;;;;0.63;0.63;;;;;;;;;;7357362;19;20848;-64
2022/12/25 15:36:17;;;;;;;0.30;0.30;;;;;;;;;;7358267;19;20145;-64
2022/12/25 15:38:42;;;;;;;0.40;0.40;;;;;;;;;;7363302;19;20145;-64
2022/12/25 15:42:09;;;;;;;0.33;0.33;;;;;;;;;;7358607;19;20121;-65
2022/12/25 15:43:58;;;;;;;2.73;0.77;;;;;;;;;;7355355;19;20159;-64
2022/12/25 15:46:23;;;;;;;0.40;0.40;;;;;;;;;;7373497;19;20535;-64
2022/12/25 15:48:49;;;;;;;0.30;0.30;;;;;;;;;;7377123;19;20125;-64
2022/12/25 15:51:14;;;;;;;1.03;0.93;;;;;;;;;;7377356;19;20180;-64
2022/12/25 15:53:39;;;;;;;0.60;0.60;;;;;;;;;;7380711;19;20153;-64
2022/12/25 15:56:05;;;;;;;0.30;0.30;;;;;;;;;;7383936;19;20133;-64
2022/12/25 15:58:30;;;;;;;0.20;0.20;;;;;;;;;;7377356;19;20141;-64
2022/12/25 16:00:55;;;;;;;0.30;0.30;;;;;;;;;;7394663;19;20540;-64
2022/12/25 16:03:21;;;;;;;0.30;0.30;;;;;;;;;;7377061;19;20159;-64
2022/12/25 16:05:46;;;;;;;0.87;0.87;;;;;;;;;;7383145;19;20121;-64
2022/12/25 16:08:11;;;;;;;0.30;0.30;;;;;;;;;;7383562;19;20121;-65
2022/12/25 16:10:36;;;;;;;0.20;0.20;;;;;;;;;;7370028;19;20656;-65
2022/12/25 16:13:02;;;;;;;0.20;0.20;;;;;;;;;;7362848;19;20160;-65
2022/12/25 16:15:27;;;;;;;0.20;0.20;;;;;;;;;;7364286;19;20117;-65
2022/12/25 16:17:52;;;;;;;1.03;1.03;;;;;;;;;;7378482;19;20490;-65
2022/12/25 16:20:18;;;;;;;0.20;0.20;;;;;;;;;;7352525;19;20117;-65
2022/12/25 16:22:43;;;;;;;0.67;0.67;;;;;;;;;;7373391;19;20591;-64
2022/12/25 16:25:17;;;;;;;0.30;0.30;;;;;;;;;;7381834;19;20121;-65
2022/12/25 16:27:42;;;;;;;0.43;0.43;;;;;;;;;;7364767;19;20129;-65
2022/12/25 16:30:09;;;;;;;0.30;0.30;;;;;;;;;;7389033;19;20572;-65
2022/12/25 16:32:35;;;;;;;0.30;0.30;;;;;;;;;;7386182;19;20176;-65
2022/12/25 16:35:00;;;;;;;0.60;0.60;;;;;;;;;;7367912;19;20183;-65
2022/12/25 16:37:26;;;;;;;0.23;0.23;;;;;;;;;;7381917;19;20113;-65
2022/12/25 16:39:51;;;;;;;0.20;0.20;;;;;;;;;;7385268;19;20619;-65
2022/12/25 16:42:17;;;;;;;0.30;0.30;;;;;;;;;;7383728;19;20192;-65
2022/12/25 16:44:42;;;;;;;2.27;0.57;;;;;;;;;;7380865;19;20113;-65
2022/12/25 16:47:07;;;;;;;0.57;0.40;;;;;;;;;;7370724;19;20117;-65
2022/12/25 16:49:33;;;;;;;0.40;0.40;;;;;;;;;;7363702;19;20660;-65
2022/12/25 16:51:58;;;;;;;0.20;0.20;;;;;;;;;;7371666;19;20161;-65
2022/12/25 16:54:24;;;;;;;0.30;0.30;;;;;;;;;;7376129;19;20201;-65
2022/12/25 16:56:50;;;;;;;0.40;0.40;;;;;;;;;;7380707;19;22123;-65
2022/12/25 16:59:15;;;;;;;0.63;0.57;;;;;;;;;;7366559;19;20159;-65
2022/12/25 17:01:42;;;;;;;0.23;0.23;;;;;;;;;;7381832;19;20200;-65
2022/12/25 17:04:08;;;;;;;0.53;0.53;;;;;;;;;;7391844;19;20145;-65
2022/12/25 17:06:33;;;;;;;0.30;0.30;;;;;;;;;;7388658;19;20152;-65
2022/12/25 17:09:01;;;;;;;0.30;0.30;;;;;;;;;;7389933;19;20506;-64
2022/12/25 17:11:28;;;;;;;0.30;0.30;;;;;;;;;;7386595;19;20607;-65
2022/12/25 17:13:55;;;;;;;0.50;0.50;;;;;;;;;;7368768;19;20671;-65
2022/12/25 17:16:23;;;;;;;0.37;0.37;;;;;;;;;;7374971;19;20421;-64
2022/12/25 17:18:56;;;;;;;0.30;0.30;;;;;;;;;;7365190;19;20136;-63
2022/12/25 17:21:25;;;;;;;0.30;0.30;;;;;;;;;;7372123;19;20225;-63
2022/12/25 17:23:50;;;;;;;1.07;0.77;;;;;;;;;;7361045;19;20675;-63
2022/12/25 17:26:16;;;;;;;0.30;0.30;;;;;;;;;;7377662;19;20132;-64
2022/12/25 17:28:41;;;;;;;0.30;0.30;;;;;;;;;;7370078;19;20136;-64
2022/12/25 17:31:08;;;;;;;0.20;0.20;;;;;;;;;;7365380;19;20189;-64
2022/12/25 17:33:40;;;;;;;0.63;0.63;;;;;;;;;;7363549;19;20164;-64
2022/12/25 17:36:12;;;;;;;0.87;0.67;;;;;;;;;;7356299;19;20476;-63
2022/12/25 17:38:38;;;;;;;0.30;0.30;;;;;;;;;;7369855;19;20196;-63
2022/12/25 17:41:05;;;;;;;0.30;0.30;;;;;;;;;;7363738;19;20198;-63
2022/12/25 17:43:32;;;;;;;0.20;0.20;;;;;;;;;;7371417;19;20476;-64
2022/12/25 17:46:06;;;;;;;1.23;0.93;;;;;;;;;;7377707;19;20399;-63
2022/12/25 17:48:32;;;;;;;0.40;0.40;;;;;;;;;;7368856;19;20120;-64
2022/12/25 17:51:06;;;;;;;0.30;0.30;;;;;;;;;;7383963;19;20129;-64
2022/12/25 17:53:34;;;;;;;1.07;0.97;;;;;;;;;;7380620;19;20495;-64
2022/12/25 17:55:59;;;;;;;0.40;0.40;;;;;;;;;;7377502;19;20469;-64
2022/12/25 17:58:25;;;;;;;0.30;0.30;;;;;;;;;;7334222;19;20140;-64
2022/12/25 18:00:51;;;;;;;1.33;0.60;;;;;;;;;;7346492;19;20125;-64
2022/12/25 18:03:17;;;;;;;0.20;0.20;;;;;;;;;;7323202;19;20149;-64
2022/12/25 18:05:42;;;;;;;0.77;0.77;;;;;;;;;;7372921;19;20124;-64
2022/12/25 18:08:08;;;;;;;0.50;0.50;;;;;;;;;;7373222;19;20216;-64
2022/12/25 18:10:38;;;;;;;0.40;0.40;;;;;;;;;;7360946;19;20142;-64
2022/12/25 18:13:04;;;;;;;2.17;1.17;;;;;;;;;;7359325;19;20663;-64
2022/12/25 18:15:29;;;;;;;0.57;0.57;;;;;;;;;;7376753;19;20121;-64
2022/12/25 18:17:55;;;;;;;0.40;0.40;;;;;;;;;;7364645;19;20121;-64
2022/12/25 18:20:20;;;;;;;0.63;0.63;;;;;;;;;;7371571;19;20137;-64
2022/12/25 18:22:45;;;;;;;0.50;0.50;;;;;;;;;;7374771;19;20514;-63
2022/12/25 18:25:11;;;;;;;1.07;0.90;;;;;;;;;;7370478;19;20124;-64
2022/12/25 18:27:36;;;;;;;3.17;1.70;;;;;;;;;;7342953;19;21007;-64
2022/12/25 18:30:01;;;;;;;0.60;0.60;;;;;;;;;;7341586;19;20217;-64
2022/12/25 18:32:27;;;;;;;3.23;1.63;;;;;;;;;;7354503;19;20167;-64
2022/12/25 18:34:53;;;;;;;1.87;1.77;;;;;;;;;;7351618;19;20129;-64
2022/12/25 18:37:18;;;;;;;2.73;2.23;;;;;;;;;;7377966;19;20129;-63
2022/12/25 18:39:44;;;;;;;1.07;1.07;;;;;;;;;;7365924;19;20590;-63
